AEN89R LEBB-EDDH
Flight info
| Callsign | AEN89R |
|---|---|
| Flight time | 2h 3m |
| Altitude | 36000 |
| Route | SSN L176 LUSEM DCT LULUT DCT ADABI DCT BOKNO DCT DIBES DCT VIQAQ DCT TSU UN858 OQQAL DCT RANUX/N0454F370 DCT VALEK DCT LUTAX UM163 DIK N853 ARCKY DCT IBESA DCT OSNAD DCT BASUM/N0452F360 Y850 PIXUR/N0454F370 Y850 MUBZI M105 RIBSO RIBSO7A |
| Aircraft | A320/M-SDE3FGHIRWY/LB1 |
Departure
| Time | 2026-04-21 10:40 |
|---|---|
| Airport | Bilbao Airport (LEBB) |
Arrival
| Time | 2026-04-21 12:44 |
|---|---|
| Airport | Hamburg Helmut Schmidt Airport (EDDH) |
| Time | Latitude | Longitude | Altitude | Speed | Heading |
|---|---|---|---|---|---|
| 2026-04-21 10:03 | 43.30428 | -2.90634 | 133 ft | 0 kts | 26° |
| 2026-04-21 10:31 | 43.30409 | -2.90648 | 132 ft | 4 kts | 29° |
| 2026-04-21 10:31 | 43.30385 | -2.90660 | 132 ft | 3 kts | 355° |
| 2026-04-21 10:32 | 43.30363 | -2.90654 | 132 ft | 4 kts | 322° |
| 2026-04-21 10:32 | 43.30347 | -2.90627 | 132 ft | 2 kts | 297° |
| 2026-04-21 10:32 | 43.30346 | -2.90624 | 132 ft | 0 kts | 297° |
| 2026-04-21 10:35 | 43.30348 | -2.90629 | 132 ft | 3 kts | 297° |
| 2026-04-21 10:35 | 43.30367 | -2.90680 | 132 ft | 9 kts | 297° |
| 2026-04-21 10:35 | 43.30403 | -2.90778 | 132 ft | 14 kts | 296° |
| 2026-04-21 10:36 | 43.30414 | -2.90892 | 132 ft | 8 kts | 270° |
| 2026-04-21 10:36 | 43.30394 | -2.90980 | 132 ft | 12 kts | 212° |
| 2026-04-21 10:36 | 43.30309 | -2.91045 | 132 ft | 13 kts | 230° |
| 2026-04-21 10:36 | 43.30337 | -2.91171 | 132 ft | 17 kts | 296° |
| 2026-04-21 10:37 | 43.30393 | -2.91321 | 132 ft | 19 kts | 297° |
| 2026-04-21 10:37 | 43.30460 | -2.91506 | 132 ft | 22 kts | 296° |
| 2026-04-21 10:37 | 43.30534 | -2.91706 | 132 ft | 24 kts | 297° |
| 2026-04-21 10:37 | 43.30606 | -2.91910 | 132 ft | 22 kts | 298° |
| 2026-04-21 10:38 | 43.30676 | -2.92095 | 132 ft | 22 kts | 297° |
| 2026-04-21 10:38 | 43.30744 | -2.92277 | 132 ft | 21 kts | 297° |
| 2026-04-21 10:38 | 43.30799 | -2.92429 | 132 ft | 15 kts | 294° |
| 2026-04-21 10:38 | 43.30752 | -2.92508 | 132 ft | 12 kts | 168° |
| 2026-04-21 10:39 | 43.30681 | -2.92477 | 133 ft | 9 kts | 162° |
| 2026-04-21 10:39 | 43.30627 | -2.92451 | 133 ft | 8 kts | 153° |
| 2026-04-21 10:39 | 43.30587 | -2.92363 | 133 ft | 18 kts | 116° |
| 2026-04-21 10:39 | 43.30447 | -2.91982 | 132 ft | 79 kts | 117° |
| 2026-04-21 10:40 | 43.30109 | -2.91060 | 130 ft | 136 kts | 116° |
| 2026-04-21 10:40 | 43.29635 | -2.89746 | 392 ft | 159 kts | 116° |
| 2026-04-21 10:40 | 43.29134 | -2.88393 | 1115 ft | 159 kts | 116° |
| 2026-04-21 10:40 | 43.28612 | -2.87014 | 1630 ft | 171 kts | 118° |
| 2026-04-21 10:41 | 43.28039 | -2.85446 | 2035 ft | 195 kts | 117° |
| 2026-04-21 10:41 | 43.27421 | -2.83681 | 2499 ft | 214 kts | 117° |
| 2026-04-21 10:41 | 43.26742 | -2.81826 | 3090 ft | 220 kts | 118° |
| 2026-04-21 10:41 | 43.26039 | -2.79936 | 3789 ft | 223 kts | 118° |
| 2026-04-21 10:42 | 43.25330 | -2.78032 | 4619 ft | 225 kts | 118° |
| 2026-04-21 10:42 | 43.24682 | -2.76055 | 5260 ft | 231 kts | 105° |
| 2026-04-21 10:42 | 43.24672 | -2.73842 | 5934 ft | 237 kts | 75° |
| 2026-04-21 10:42 | 43.25465 | -2.71860 | 6600 ft | 241 kts | 45° |
| 2026-04-21 10:43 | 43.26708 | -2.70288 | 7257 ft | 244 kts | 41° |
| 2026-04-21 10:43 | 43.27981 | -2.68730 | 7953 ft | 246 kts | 41° |
| 2026-04-21 10:43 | 43.29236 | -2.67101 | 8649 ft | 251 kts | 50° |
| 2026-04-21 10:43 | 43.30130 | -2.65037 | 9296 ft | 256 kts | 70° |
| 2026-04-21 10:44 | 43.30478 | -2.62546 | 9591 ft | 278 kts | 90° |
| 2026-04-21 10:44 | 43.30502 | -2.59789 | 9924 ft | 299 kts | 90° |
| 2026-04-21 10:44 | 43.30533 | -2.56841 | 10184 ft | 321 kts | 90° |
| 2026-04-21 10:44 | 43.30574 | -2.53666 | 10367 ft | 344 kts | 90° |
| 2026-04-21 10:45 | 43.30622 | -2.50280 | 10614 ft | 363 kts | 89° |
| 2026-04-21 10:45 | 43.30678 | -2.46776 | 11167 ft | 370 kts | 89° |
| 2026-04-21 10:45 | 43.30737 | -2.43229 | 11826 ft | 374 kts | 89° |
| 2026-04-21 10:45 | 43.30797 | -2.39647 | 12527 ft | 377 kts | 89° |
| 2026-04-21 10:46 | 43.30855 | -2.36024 | 13216 ft | 381 kts | 89° |
| 2026-04-21 10:46 | 43.30910 | -2.32367 | 13839 ft | 385 kts | 89° |
| 2026-04-21 10:46 | 43.30964 | -2.28680 | 14418 ft | 388 kts | 89° |
| 2026-04-21 10:46 | 43.31010 | -2.24952 | 14976 ft | 392 kts | 89° |
| 2026-04-21 10:47 | 43.31036 | -2.21191 | 15536 ft | 396 kts | 89° |
| 2026-04-21 10:47 | 43.31047 | -2.18629 | 15913 ft | 398 kts | 89° |
| 2026-04-21 10:47 | 43.31057 | -2.14809 | 16458 ft | 402 kts | 89° |
| 2026-04-21 10:47 | 43.31062 | -2.10952 | 16983 ft | 406 kts | 89° |
| 2026-04-21 10:48 | 43.31067 | -2.07061 | 17515 ft | 409 kts | 89° |
| 2026-04-21 10:48 | 43.31074 | -2.03141 | 18053 ft | 413 kts | 89° |
| 2026-04-21 10:48 | 43.31083 | -1.99186 | 18532 ft | 416 kts | 89° |
| 2026-04-21 10:48 | 43.31093 | -1.95208 | 18995 ft | 419 kts | 89° |
| 2026-04-21 10:49 | 43.31317 | -1.91204 | 19448 ft | 421 kts | 78° |
| 2026-04-21 10:49 | 43.32107 | -1.87332 | 19910 ft | 423 kts | 66° |
| 2026-04-21 10:49 | 43.33446 | -1.83745 | 20358 ft | 423 kts | 55° |
| 2026-04-21 10:49 | 43.35281 | -1.80584 | 20785 ft | 423 kts | 43° |
| 2026-04-21 10:50 | 43.37534 | -1.78001 | 21215 ft | 422 kts | 31° |
| 2026-04-21 10:50 | 43.40006 | -1.75805 | 21640 ft | 424 kts | 30° |
| 2026-04-21 10:50 | 43.42490 | -1.73585 | 22067 ft | 427 kts | 30° |
| 2026-04-21 10:50 | 43.44982 | -1.71336 | 22499 ft | 430 kts | 31° |
| 2026-04-21 10:51 | 43.47489 | -1.69060 | 22897 ft | 433 kts | 31° |
| 2026-04-21 10:51 | 43.50008 | -1.66768 | 23292 ft | 436 kts | 31° |
| 2026-04-21 10:51 | 43.52545 | -1.64462 | 23646 ft | 438 kts | 31° |
| 2026-04-21 10:51 | 43.55095 | -1.62145 | 23974 ft | 441 kts | 31° |
| 2026-04-21 10:52 | 43.57662 | -1.59815 | 24300 ft | 443 kts | 31° |
| 2026-04-21 10:52 | 43.60244 | -1.57474 | 24625 ft | 445 kts | 30° |
| 2026-04-21 10:52 | 43.62838 | -1.55126 | 24947 ft | 447 kts | 30° |
| 2026-04-21 10:52 | 43.65444 | -1.52764 | 25264 ft | 449 kts | 30° |
| 2026-04-21 10:53 | 43.68061 | -1.50386 | 25605 ft | 451 kts | 30° |
| 2026-04-21 10:53 | 43.70686 | -1.47992 | 25898 ft | 454 kts | 31° |
| 2026-04-21 10:53 | 43.73325 | -1.45580 | 26202 ft | 456 kts | 31° |
| 2026-04-21 10:53 | 43.75973 | -1.43154 | 26529 ft | 458 kts | 30° |
| 2026-04-21 10:54 | 43.78639 | -1.40710 | 26836 ft | 460 kts | 30° |
| 2026-04-21 10:54 | 43.81312 | -1.38261 | 27143 ft | 462 kts | 30° |
| 2026-04-21 10:54 | 43.83999 | -1.35800 | 27438 ft | 464 kts | 30° |
| 2026-04-21 10:54 | 43.86705 | -1.33322 | 27719 ft | 466 kts | 30° |
| 2026-04-21 10:55 | 43.89412 | -1.30836 | 27988 ft | 468 kts | 30° |
| 2026-04-21 10:55 | 43.92135 | -1.28333 | 28266 ft | 470 kts | 30° |
| 2026-04-21 10:55 | 43.94863 | -1.25818 | 28528 ft | 472 kts | 30° |
| 2026-04-21 10:55 | 43.97607 | -1.23289 | 28785 ft | 474 kts | 30° |
| 2026-04-21 10:56 | 44.00361 | -1.20751 | 29036 ft | 476 kts | 30° |
| 2026-04-21 10:56 | 44.03124 | -1.18203 | 29351 ft | 477 kts | 30° |
| 2026-04-21 10:56 | 44.05885 | -1.15653 | 29734 ft | 476 kts | 30° |
| 2026-04-21 10:56 | 44.08638 | -1.13104 | 30099 ft | 475 kts | 30° |
| 2026-04-21 10:57 | 44.11391 | -1.10547 | 30401 ft | 475 kts | 30° |
| 2026-04-21 10:57 | 44.14132 | -1.07996 | 30721 ft | 474 kts | 30° |
| 2026-04-21 10:57 | 44.16873 | -1.05445 | 31034 ft | 473 kts | 30° |
| 2026-04-21 10:57 | 44.19606 | -1.02898 | 31352 ft | 473 kts | 30° |
| 2026-04-21 10:58 | 44.22336 | -1.00354 | 31658 ft | 472 kts | 30° |
| 2026-04-21 10:58 | 44.25067 | -0.97812 | 31979 ft | 471 kts | 30° |
| 2026-04-21 10:58 | 44.27791 | -0.95277 | 32297 ft | 470 kts | 30° |
| 2026-04-21 10:58 | 44.30512 | -0.92741 | 32621 ft | 470 kts | 30° |
| 2026-04-21 10:59 | 44.33224 | -0.90206 | 32915 ft | 469 kts | 30° |
| 2026-04-21 10:59 | 44.35933 | -0.87666 | 33213 ft | 469 kts | 30° |
| 2026-04-21 10:59 | 44.38642 | -0.85136 | 33512 ft | 467 kts | 28° |
| 2026-04-21 10:59 | 44.41490 | -0.82966 | 33666 ft | 466 kts | 20° |
| 2026-04-21 11:00 | 44.44466 | -0.81154 | 33812 ft | 468 kts | 19° |
| 2026-04-21 11:00 | 44.47461 | -0.79344 | 33944 ft | 470 kts | 19° |
| 2026-04-21 11:00 | 44.50468 | -0.77520 | 34114 ft | 471 kts | 19° |
| 2026-04-21 11:00 | 44.53475 | -0.75684 | 34326 ft | 472 kts | 19° |
| 2026-04-21 11:01 | 44.56480 | -0.73846 | 34563 ft | 471 kts | 19° |
| 2026-04-21 11:01 | 44.59489 | -0.72006 | 34788 ft | 471 kts | 19° |
| 2026-04-21 11:01 | 44.62494 | -0.70172 | 35015 ft | 471 kts | 19° |
| 2026-04-21 11:02 | 44.68490 | -0.66493 | 35447 ft | 470 kts | 19° |
| 2026-04-21 11:02 | 44.71492 | -0.64645 | 35654 ft | 470 kts | 19° |
| 2026-04-21 11:02 | 44.74484 | -0.62802 | 35849 ft | 470 kts | 19° |
| 2026-04-21 11:02 | 44.77479 | -0.60956 | 35917 ft | 470 kts | 19° |
| 2026-04-21 11:03 | 44.83460 | -0.57264 | 35920 ft | 469 kts | 19° |
| 2026-04-21 11:03 | 44.89439 | -0.53568 | 35922 ft | 469 kts | 19° |
| 2026-04-21 11:04 | 44.95418 | -0.49864 | 35920 ft | 469 kts | 19° |
| 2026-04-21 11:04 | 45.01387 | -0.46141 | 35916 ft | 469 kts | 19° |
| 2026-04-21 11:05 | 45.07358 | -0.42421 | 35928 ft | 469 kts | 19° |
| 2026-04-21 11:05 | 45.13338 | -0.38693 | 35944 ft | 470 kts | 19° |
| 2026-04-21 11:06 | 45.19316 | -0.34956 | 35948 ft | 470 kts | 19° |
| 2026-04-21 11:06 | 45.25295 | -0.31209 | 35944 ft | 470 kts | 19° |
| 2026-04-21 11:07 | 45.31271 | -0.27458 | 35956 ft | 470 kts | 19° |
| 2026-04-21 11:07 | 45.37245 | -0.23698 | 35955 ft | 470 kts | 19° |
| 2026-04-21 11:08 | 45.43221 | -0.19918 | 35966 ft | 470 kts | 19° |
| 2026-04-21 11:08 | 45.49192 | -0.16133 | 35977 ft | 470 kts | 19° |
| 2026-04-21 11:09 | 45.55165 | -0.12339 | 35983 ft | 470 kts | 19° |
| 2026-04-21 11:09 | 45.61135 | -0.08539 | 35987 ft | 469 kts | 19° |
| 2026-04-21 11:10 | 45.67100 | -0.04741 | 35985 ft | 469 kts | 19° |
| 2026-04-21 11:10 | 45.73061 | -0.00933 | 35984 ft | 469 kts | 19° |
| 2026-04-21 11:11 | 45.79017 | 0.02888 | 35984 ft | 469 kts | 19° |
| 2026-04-21 11:11 | 45.84979 | 0.06708 | 35986 ft | 469 kts | 19° |
| 2026-04-21 11:12 | 45.90936 | 0.10534 | 35990 ft | 469 kts | 19° |
| 2026-04-21 11:12 | 45.96892 | 0.14378 | 35993 ft | 469 kts | 19° |
| 2026-04-21 11:13 | 46.02842 | 0.18230 | 36001 ft | 469 kts | 19° |
| 2026-04-21 11:13 | 46.08795 | 0.22085 | 36010 ft | 469 kts | 19° |
| 2026-04-21 11:14 | 46.14738 | 0.25941 | 36014 ft | 469 kts | 19° |
| 2026-04-21 11:14 | 46.20682 | 0.29810 | 36021 ft | 469 kts | 19° |
| 2026-04-21 11:15 | 46.26625 | 0.33686 | 36031 ft | 469 kts | 19° |
| 2026-04-21 11:15 | 46.32563 | 0.37575 | 36048 ft | 468 kts | 19° |
| 2026-04-21 11:16 | 46.38498 | 0.41474 | 36057 ft | 468 kts | 19° |
| 2026-04-21 11:16 | 46.44427 | 0.45376 | 36065 ft | 468 kts | 19° |
| 2026-04-21 11:17 | 46.50352 | 0.49282 | 36069 ft | 468 kts | 19° |
| 2026-04-21 11:17 | 46.56312 | 0.53007 | 36072 ft | 462 kts | 12° |
| 2026-04-21 11:18 | 46.62502 | 0.55182 | 36074 ft | 457 kts | 6° |
| 2026-04-21 11:18 | 46.68697 | 0.57214 | 36061 ft | 457 kts | 6° |
| 2026-04-21 11:19 | 46.74897 | 0.59255 | 36072 ft | 456 kts | 6° |
| 2026-04-21 11:19 | 46.81077 | 0.61296 | 36069 ft | 456 kts | 7° |
| 2026-04-21 11:20 | 46.87284 | 0.63363 | 36067 ft | 456 kts | 7° |
| 2026-04-21 11:20 | 46.93511 | 0.65429 | 36080 ft | 456 kts | 6° |
| 2026-04-21 11:21 | 46.99701 | 0.67490 | 36094 ft | 455 kts | 7° |
| 2026-04-21 11:21 | 47.05716 | 0.70223 | 36100 ft | 462 kts | 21° |
| 2026-04-21 11:22 | 47.11310 | 0.75053 | 36107 ft | 464 kts | 26° |
| 2026-04-21 11:22 | 47.16825 | 0.79965 | 36121 ft | 463 kts | 26° |
| 2026-04-21 11:23 | 47.22298 | 0.84836 | 36121 ft | 462 kts | 26° |
| 2026-04-21 11:23 | 47.27828 | 0.89779 | 36123 ft | 462 kts | 26° |
| 2026-04-21 11:24 | 47.32387 | 0.93880 | 36122 ft | 462 kts | 26° |
| 2026-04-21 11:24 | 47.38759 | 0.99624 | 36122 ft | 462 kts | 26° |
| 2026-04-21 11:25 | 47.43348 | 1.03766 | 36121 ft | 462 kts | 26° |
| 2026-04-21 11:25 | 47.48827 | 1.08720 | 36118 ft | 462 kts | 26° |
| 2026-04-21 11:26 | 47.54357 | 1.13515 | 36116 ft | 459 kts | 23° |
| 2026-04-21 11:26 | 47.60017 | 1.17872 | 36119 ft | 458 kts | 21° |
| 2026-04-21 11:27 | 47.65705 | 1.22137 | 36123 ft | 458 kts | 22° |
| 2026-04-21 11:27 | 47.71358 | 1.26525 | 36127 ft | 459 kts | 22° |
| 2026-04-21 11:28 | 47.76985 | 1.30983 | 36132 ft | 459 kts | 23° |
| 2026-04-21 11:28 | 47.82612 | 1.35464 | 36143 ft | 458 kts | 23° |
| 2026-04-21 11:29 | 47.88242 | 1.39915 | 36153 ft | 458 kts | 22° |
| 2026-04-21 11:29 | 47.93877 | 1.44354 | 36155 ft | 458 kts | 22° |
| 2026-04-21 11:30 | 47.99499 | 1.48824 | 36156 ft | 458 kts | 23° |
| 2026-04-21 11:30 | 48.05112 | 1.53296 | 36162 ft | 457 kts | 22° |
| 2026-04-21 11:31 | 48.10723 | 1.57775 | 36161 ft | 457 kts | 23° |
| 2026-04-21 11:31 | 48.16326 | 1.62261 | 36167 ft | 457 kts | 23° |
| 2026-04-21 11:32 | 48.21927 | 1.66766 | 36171 ft | 456 kts | 23° |
| 2026-04-21 11:32 | 48.27521 | 1.71272 | 36174 ft | 456 kts | 23° |
| 2026-04-21 11:33 | 48.33105 | 1.75780 | 36170 ft | 456 kts | 23° |
| 2026-04-21 11:33 | 48.38685 | 1.80285 | 36179 ft | 455 kts | 23° |
| 2026-04-21 11:34 | 48.44265 | 1.84792 | 36189 ft | 455 kts | 23° |
| 2026-04-21 11:34 | 48.49828 | 1.89310 | 36188 ft | 454 kts | 23° |
| 2026-04-21 11:35 | 48.55387 | 1.93847 | 36195 ft | 454 kts | 23° |
| 2026-04-21 11:35 | 48.60938 | 1.98391 | 36193 ft | 454 kts | 23° |
| 2026-04-21 11:36 | 48.66492 | 2.02938 | 36193 ft | 454 kts | 22° |
| 2026-04-21 11:36 | 48.69372 | 2.05359 | 36187 ft | 455 kts | 27° |
| 2026-04-21 11:37 | 48.74188 | 2.11768 | 36189 ft | 470 kts | 46° |
| 2026-04-21 11:37 | 48.76010 | 2.15919 | 36190 ft | 478 kts | 58° |
| 2026-04-21 11:37 | 48.77276 | 2.20607 | 36182 ft | 485 kts | 70° |
| 2026-04-21 11:38 | 48.79039 | 2.30497 | 36168 ft | 486 kts | 70° |
| 2026-04-21 11:38 | 48.80809 | 2.40409 | 36196 ft | 487 kts | 70° |
| 2026-04-21 11:39 | 48.82581 | 2.50331 | 36198 ft | 488 kts | 70° |
| 2026-04-21 11:39 | 48.84342 | 2.60283 | 36200 ft | 488 kts | 70° |
| 2026-04-21 11:40 | 48.86100 | 2.70248 | 36201 ft | 489 kts | 70° |
| 2026-04-21 11:40 | 48.87853 | 2.80222 | 36191 ft | 489 kts | 70° |
| 2026-04-21 11:41 | 48.89586 | 2.90218 | 36188 ft | 489 kts | 70° |
| 2026-04-21 11:41 | 48.91317 | 3.00220 | 36189 ft | 489 kts | 70° |
| 2026-04-21 11:42 | 48.93044 | 3.10230 | 36193 ft | 490 kts | 70° |
| 2026-04-21 11:42 | 48.94758 | 3.20256 | 36194 ft | 490 kts | 70° |
| 2026-04-21 11:43 | 48.96464 | 3.30290 | 36194 ft | 490 kts | 70° |
| 2026-04-21 11:43 | 48.98161 | 3.40332 | 36195 ft | 490 kts | 70° |
| 2026-04-21 11:44 | 48.99858 | 3.50385 | 36194 ft | 490 kts | 70° |
| 2026-04-21 11:44 | 49.01541 | 3.60435 | 36198 ft | 490 kts | 71° |
| 2026-04-21 11:45 | 49.03214 | 3.70513 | 36199 ft | 490 kts | 71° |
| 2026-04-21 11:45 | 49.04875 | 3.80592 | 36202 ft | 490 kts | 71° |
| 2026-04-21 11:46 | 49.06534 | 3.90678 | 36209 ft | 490 kts | 71° |
| 2026-04-21 11:46 | 49.08184 | 4.00764 | 36425 ft | 490 kts | 71° |
| 2026-04-21 11:47 | 49.08999 | 4.05798 | 36690 ft | 488 kts | 71° |
| 2026-04-21 11:47 | 49.09810 | 4.10818 | 36925 ft | 487 kts | 72° |
| 2026-04-21 11:47 | 49.10616 | 4.15830 | 37137 ft | 486 kts | 72° |
| 2026-04-21 11:47 | 49.11421 | 4.20841 | 37194 ft | 486 kts | 72° |
| 2026-04-21 11:48 | 49.13023 | 4.30841 | 37187 ft | 484 kts | 72° |
| 2026-04-21 11:48 | 49.15071 | 4.40560 | 37193 ft | 478 kts | 63° |
| 2026-04-21 11:49 | 49.17632 | 4.49941 | 37192 ft | 478 kts | 63° |
| 2026-04-21 11:49 | 49.20196 | 4.59395 | 37191 ft | 478 kts | 63° |
| 2026-04-21 11:50 | 49.22707 | 4.68728 | 37200 ft | 478 kts | 63° |
| 2026-04-21 11:50 | 49.25253 | 4.78193 | 37211 ft | 478 kts | 63° |
| 2026-04-21 11:51 | 49.27775 | 4.87597 | 37218 ft | 478 kts | 64° |
| 2026-04-21 11:51 | 49.30287 | 4.97021 | 37217 ft | 478 kts | 64° |
| 2026-04-21 11:52 | 49.32780 | 5.06466 | 37218 ft | 478 kts | 64° |
| 2026-04-21 11:52 | 49.35270 | 5.15921 | 37220 ft | 478 kts | 64° |
| 2026-04-21 11:53 | 49.37752 | 5.25377 | 37223 ft | 478 kts | 64° |
| 2026-04-21 11:53 | 49.40230 | 5.34829 | 37225 ft | 477 kts | 64° |
| 2026-04-21 11:54 | 49.42698 | 5.44286 | 37225 ft | 477 kts | 64° |
| 2026-04-21 11:54 | 49.45162 | 5.53758 | 37225 ft | 477 kts | 64° |
| 2026-04-21 11:55 | 49.47616 | 5.63242 | 37231 ft | 477 kts | 65° |
| 2026-04-21 11:55 | 49.50221 | 5.72598 | 37230 ft | 473 kts | 56° |
| 2026-04-21 11:56 | 49.54226 | 5.80433 | 37228 ft | 462 kts | 38° |
| 2026-04-21 11:56 | 49.59309 | 5.86356 | 37223 ft | 457 kts | 30° |
| 2026-04-21 11:57 | 49.64674 | 5.91592 | 37209 ft | 456 kts | 28° |
| 2026-04-21 11:57 | 49.70078 | 5.96740 | 37209 ft | 457 kts | 28° |
| 2026-04-21 11:58 | 49.75427 | 6.02052 | 37217 ft | 457 kts | 30° |
| 2026-04-21 11:58 | 49.80740 | 6.07478 | 37219 ft | 458 kts | 30° |
| 2026-04-21 11:59 | 49.86370 | 6.11813 | 37222 ft | 449 kts | 13° |
| 2026-04-21 11:59 | 49.92490 | 6.13012 | 37224 ft | 442 kts | 358° |
| 2026-04-21 12:00 | 49.98645 | 6.13043 | 37222 ft | 443 kts | 358° |
| 2026-04-21 12:00 | 50.04813 | 6.13085 | 37220 ft | 443 kts | 358° |
| 2026-04-21 12:01 | 50.10987 | 6.13119 | 37221 ft | 444 kts | 358° |
| 2026-04-21 12:01 | 50.17162 | 6.13150 | 37230 ft | 444 kts | 358° |
| 2026-04-21 12:02 | 50.26423 | 6.13327 | 37227 ft | 445 kts | 4° |
| 2026-04-21 12:03 | 50.31429 | 6.15303 | 37231 ft | 450 kts | 21° |
| 2026-04-21 12:03 | 50.36835 | 6.20321 | 37229 ft | 454 kts | 31° |
| 2026-04-21 12:04 | 50.42121 | 6.25761 | 37223 ft | 455 kts | 30° |
| 2026-04-21 12:04 | 50.47421 | 6.31206 | 37232 ft | 455 kts | 31° |
| 2026-04-21 12:05 | 50.52694 | 6.36728 | 37238 ft | 456 kts | 32° |
| 2026-04-21 12:05 | 50.57895 | 6.42460 | 37258 ft | 457 kts | 33° |
| 2026-04-21 12:06 | 50.63075 | 6.48240 | 37281 ft | 457 kts | 33° |
| 2026-04-21 12:06 | 50.68275 | 6.54003 | 37284 ft | 456 kts | 32° |
| 2026-04-21 12:07 | 50.73475 | 6.59744 | 37292 ft | 456 kts | 33° |
| 2026-04-21 12:07 | 50.78609 | 6.65413 | 37292 ft | 456 kts | 33° |
| 2026-04-21 12:08 | 50.83804 | 6.71174 | 37290 ft | 456 kts | 33° |
| 2026-04-21 12:08 | 50.88991 | 6.76957 | 37290 ft | 456 kts | 33° |
| 2026-04-21 12:09 | 50.94140 | 6.82719 | 37291 ft | 456 kts | 33° |
| 2026-04-21 12:09 | 50.99323 | 6.88532 | 37274 ft | 456 kts | 33° |
| 2026-04-21 12:10 | 51.04537 | 6.94381 | 37277 ft | 456 kts | 33° |
| 2026-04-21 12:10 | 51.09710 | 7.00210 | 37291 ft | 456 kts | 33° |
| 2026-04-21 12:11 | 51.14884 | 7.06058 | 37290 ft | 456 kts | 33° |
| 2026-04-21 12:11 | 51.20044 | 7.11906 | 37293 ft | 455 kts | 34° |
| 2026-04-21 12:12 | 51.25201 | 7.17761 | 37296 ft | 455 kts | 34° |
| 2026-04-21 12:12 | 51.30348 | 7.23634 | 37301 ft | 454 kts | 34° |
| 2026-04-21 12:13 | 51.35487 | 7.29509 | 37312 ft | 454 kts | 34° |
| 2026-04-21 12:13 | 51.40614 | 7.35390 | 37315 ft | 453 kts | 34° |
| 2026-04-21 12:14 | 51.45742 | 7.41280 | 37319 ft | 453 kts | 34° |
| 2026-04-21 12:14 | 51.50861 | 7.47164 | 37319 ft | 452 kts | 34° |
| 2026-04-21 12:15 | 51.55965 | 7.53064 | 37320 ft | 452 kts | 34° |
| 2026-04-21 12:15 | 51.61059 | 7.58979 | 37316 ft | 452 kts | 34° |
| 2026-04-21 12:16 | 51.66154 | 7.64905 | 37314 ft | 452 kts | 34° |
| 2026-04-21 12:16 | 51.71248 | 7.70834 | 37313 ft | 452 kts | 35° |
| 2026-04-21 12:17 | 51.76336 | 7.76782 | 37303 ft | 452 kts | 35° |
| 2026-04-21 12:17 | 51.78883 | 7.79763 | 36916 ft | 452 kts | 35° |
| 2026-04-21 12:17 | 51.81428 | 7.82748 | 36401 ft | 450 kts | 35° |
| 2026-04-21 12:17 | 51.83950 | 7.85710 | 35925 ft | 449 kts | 36° |
| 2026-04-21 12:18 | 51.86471 | 7.88678 | 35447 ft | 448 kts | 36° |
| 2026-04-21 12:18 | 51.88993 | 7.91649 | 34984 ft | 448 kts | 36° |
| 2026-04-21 12:18 | 51.91505 | 7.94609 | 34518 ft | 447 kts | 36° |
| 2026-04-21 12:18 | 51.94018 | 7.97576 | 34008 ft | 446 kts | 36° |
| 2026-04-21 12:19 | 51.96523 | 8.00539 | 33457 ft | 445 kts | 37° |
| 2026-04-21 12:19 | 51.99019 | 8.03500 | 32920 ft | 444 kts | 37° |
| 2026-04-21 12:19 | 52.01505 | 8.06456 | 32399 ft | 443 kts | 37° |
| 2026-04-21 12:19 | 52.03994 | 8.09414 | 31879 ft | 442 kts | 37° |
| 2026-04-21 12:20 | 52.06473 | 8.12360 | 31365 ft | 441 kts | 38° |
| 2026-04-21 12:20 | 52.08946 | 8.15302 | 30850 ft | 440 kts | 38° |
| 2026-04-21 12:20 | 52.11412 | 8.18243 | 30360 ft | 439 kts | 38° |
| 2026-04-21 12:20 | 52.13870 | 8.21182 | 29781 ft | 439 kts | 39° |
| 2026-04-21 12:21 | 52.16332 | 8.24134 | 29202 ft | 439 kts | 39° |
| 2026-04-21 12:21 | 52.18796 | 8.27090 | 28638 ft | 440 kts | 38° |
| 2026-04-21 12:21 | 52.21392 | 8.29755 | 28083 ft | 443 kts | 31° |
| 2026-04-21 12:21 | 52.24120 | 8.32111 | 27546 ft | 444 kts | 31° |
| 2026-04-21 12:22 | 52.26838 | 8.34466 | 26999 ft | 440 kts | 31° |
| 2026-04-21 12:22 | 52.29528 | 8.36802 | 26485 ft | 436 kts | 31° |
| 2026-04-21 12:22 | 52.32196 | 8.39123 | 25975 ft | 432 kts | 31° |
| 2026-04-21 12:22 | 52.34837 | 8.41423 | 25480 ft | 428 kts | 31° |
| 2026-04-21 12:23 | 52.37453 | 8.43707 | 25078 ft | 425 kts | 31° |
| 2026-04-21 12:23 | 52.40048 | 8.45975 | 24691 ft | 422 kts | 31° |
| 2026-04-21 12:23 | 52.42628 | 8.48232 | 24303 ft | 419 kts | 32° |
| 2026-04-21 12:23 | 52.45193 | 8.50483 | 23916 ft | 416 kts | 32° |
| 2026-04-21 12:24 | 52.47737 | 8.52723 | 23459 ft | 414 kts | 32° |
| 2026-04-21 12:24 | 52.50265 | 8.54951 | 23018 ft | 411 kts | 32° |
| 2026-04-21 12:24 | 52.52774 | 8.57166 | 22569 ft | 409 kts | 32° |
| 2026-04-21 12:24 | 52.55270 | 8.59371 | 22125 ft | 406 kts | 32° |
| 2026-04-21 12:25 | 52.57752 | 8.61564 | 21710 ft | 404 kts | 32° |
| 2026-04-21 12:25 | 52.60220 | 8.63740 | 21271 ft | 402 kts | 31° |
| 2026-04-21 12:25 | 52.62676 | 8.65913 | 20839 ft | 399 kts | 31° |
| 2026-04-21 12:25 | 52.65116 | 8.68077 | 20435 ft | 397 kts | 32° |
| 2026-04-21 12:26 | 52.67541 | 8.70234 | 20024 ft | 395 kts | 31° |
| 2026-04-21 12:26 | 52.69957 | 8.72386 | 19624 ft | 393 kts | 31° |
| 2026-04-21 12:26 | 52.72358 | 8.74526 | 19224 ft | 391 kts | 31° |
| 2026-04-21 12:26 | 52.74763 | 8.76619 | 18829 ft | 391 kts | 28° |
| 2026-04-21 12:27 | 52.77326 | 8.78125 | 18412 ft | 393 kts | 17° |
| 2026-04-21 12:27 | 52.80030 | 8.78809 | 17968 ft | 396 kts | 7° |
| 2026-04-21 12:27 | 52.82790 | 8.78823 | 17551 ft | 395 kts | 3° |
| 2026-04-21 12:27 | 52.85535 | 8.78789 | 17144 ft | 393 kts | 4° |
| 2026-04-21 12:28 | 52.88267 | 8.78760 | 16745 ft | 391 kts | 4° |
| 2026-04-21 12:28 | 52.90982 | 8.78738 | 16352 ft | 390 kts | 4° |
| 2026-04-21 12:28 | 52.93686 | 8.78722 | 15964 ft | 388 kts | 4° |
| 2026-04-21 12:28 | 52.96371 | 8.78769 | 15575 ft | 384 kts | 8° |
| 2026-04-21 12:29 | 52.99005 | 8.79314 | 15196 ft | 380 kts | 12° |
| 2026-04-21 12:29 | 53.01579 | 8.80166 | 14821 ft | 375 kts | 20° |
| 2026-04-21 12:29 | 53.03955 | 8.81852 | 14450 ft | 368 kts | 32° |
| 2026-04-21 12:29 | 53.06028 | 8.84294 | 14076 ft | 363 kts | 44° |
| 2026-04-21 12:30 | 53.07740 | 8.87348 | 13669 ft | 360 kts | 52° |
| 2026-04-21 12:30 | 53.09331 | 8.90550 | 13292 ft | 359 kts | 52° |
| 2026-04-21 12:30 | 53.10917 | 8.93742 | 12918 ft | 357 kts | 52° |
| 2026-04-21 12:30 | 53.12499 | 8.96922 | 12546 ft | 356 kts | 52° |
| 2026-04-21 12:31 | 53.14074 | 9.00085 | 12181 ft | 354 kts | 52° |
| 2026-04-21 12:31 | 53.15640 | 9.03241 | 11814 ft | 353 kts | 52° |
| 2026-04-21 12:31 | 53.17183 | 9.06359 | 11471 ft | 344 kts | 52° |
| 2026-04-21 12:31 | 53.18680 | 9.09388 | 11156 ft | 334 kts | 52° |
| 2026-04-21 12:32 | 53.20139 | 9.12342 | 10849 ft | 325 kts | 52° |
| 2026-04-21 12:32 | 53.21551 | 9.15210 | 10548 ft | 314 kts | 52° |
| 2026-04-21 12:32 | 53.22893 | 9.17934 | 10259 ft | 295 kts | 52° |
| 2026-04-21 12:32 | 53.24159 | 9.20501 | 9928 ft | 279 kts | 52° |
| 2026-04-21 12:33 | 53.25364 | 9.22950 | 9598 ft | 268 kts | 52° |
| 2026-04-21 12:33 | 53.26538 | 9.25348 | 9279 ft | 265 kts | 52° |
| 2026-04-21 12:33 | 53.27702 | 9.27732 | 8961 ft | 264 kts | 52° |
| 2026-04-21 12:33 | 53.28862 | 9.30111 | 8648 ft | 263 kts | 52° |
| 2026-04-21 12:34 | 53.30016 | 9.32472 | 8338 ft | 261 kts | 52° |
| 2026-04-21 12:34 | 53.31164 | 9.34819 | 8025 ft | 260 kts | 52° |
| 2026-04-21 12:34 | 53.32305 | 9.37147 | 7719 ft | 258 kts | 52° |
| 2026-04-21 12:34 | 53.33442 | 9.39474 | 7411 ft | 258 kts | 52° |
| 2026-04-21 12:35 | 53.34566 | 9.41780 | 7115 ft | 254 kts | 52° |
| 2026-04-21 12:35 | 53.35683 | 9.44066 | 6815 ft | 252 kts | 51° |
| 2026-04-21 12:35 | 53.36803 | 9.46305 | 6500 ft | 248 kts | 51° |
| 2026-04-21 12:35 | 53.37888 | 9.48457 | 6177 ft | 235 kts | 51° |
| 2026-04-21 12:36 | 53.38914 | 9.50509 | 5862 ft | 224 kts | 51° |
| 2026-04-21 12:36 | 53.39908 | 9.52487 | 5545 ft | 221 kts | 51° |
| 2026-04-21 12:36 | 53.40901 | 9.54459 | 5241 ft | 222 kts | 52° |
| 2026-04-21 12:36 | 53.41902 | 9.56448 | 4909 ft | 223 kts | 51° |
| 2026-04-21 12:37 | 53.42898 | 9.58429 | 4616 ft | 223 kts | 51° |
| 2026-04-21 12:37 | 53.43905 | 9.60434 | 4318 ft | 224 kts | 51° |
| 2026-04-21 12:37 | 53.44894 | 9.62400 | 4003 ft | 218 kts | 51° |
| 2026-04-21 12:37 | 53.45856 | 9.64320 | 3696 ft | 213 kts | 51° |
| 2026-04-21 12:38 | 53.46797 | 9.66198 | 3386 ft | 207 kts | 50° |
| 2026-04-21 12:38 | 53.47715 | 9.68026 | 3068 ft | 202 kts | 50° |
| 2026-04-21 12:38 | 53.48595 | 9.69787 | 3000 ft | 191 kts | 50° |
| 2026-04-21 12:38 | 53.49411 | 9.71418 | 2999 ft | 174 kts | 50° |
| 2026-04-21 12:39 | 53.50166 | 9.72930 | 3009 ft | 165 kts | 50° |
| 2026-04-21 12:39 | 53.50893 | 9.74384 | 3017 ft | 162 kts | 51° |
| 2026-04-21 12:39 | 53.51620 | 9.75842 | 3025 ft | 163 kts | 49° |
| 2026-04-21 12:39 | 53.52342 | 9.77289 | 2989 ft | 162 kts | 51° |
| 2026-04-21 12:40 | 53.53065 | 9.78738 | 2849 ft | 161 kts | 50° |
| 2026-04-21 12:40 | 53.53784 | 9.80181 | 2630 ft | 158 kts | 51° |
| 2026-04-21 12:40 | 53.54492 | 9.81600 | 2434 ft | 159 kts | 50° |
| 2026-04-21 12:40 | 53.55200 | 9.83022 | 2210 ft | 158 kts | 50° |
| 2026-04-21 12:41 | 53.55667 | 9.83962 | 2071 ft | 158 kts | 51° |
| 2026-04-21 12:41 | 53.56375 | 9.85386 | 1847 ft | 158 kts | 50° |
| 2026-04-21 12:41 | 53.57280 | 9.87205 | 1584 ft | 145 kts | 50° |
| 2026-04-21 12:41 | 53.57704 | 9.88059 | 1442 ft | 142 kts | 50° |
| 2026-04-21 12:42 | 53.58331 | 9.89322 | 1232 ft | 136 kts | 49° |
| 2026-04-21 12:42 | 53.58927 | 9.90523 | 1066 ft | 133 kts | 50° |
| 2026-04-21 12:42 | 53.59510 | 9.91711 | 859 ft | 130 kts | 51° |
| 2026-04-21 12:42 | 53.60094 | 9.92894 | 693 ft | 130 kts | 51° |
| 2026-04-21 12:43 | 53.60678 | 9.94062 | 484 ft | 130 kts | 51° |
| 2026-04-21 12:43 | 53.61259 | 9.95226 | 322 ft | 128 kts | 51° |
| 2026-04-21 12:43 | 53.61831 | 9.96380 | 134 ft | 128 kts | 53° |
| 2026-04-21 12:43 | 53.62386 | 9.97501 | 41 ft | 113 kts | 51° |
| 2026-04-21 12:44 | 53.62789 | 9.98317 | 43 ft | 66 kts | 50° |
| 2026-04-21 12:44 | 53.63040 | 9.98820 | 46 ft | 48 kts | 52° |
| 2026-04-21 12:44 | 53.63227 | 9.99209 | 46 ft | 35 kts | 52° |
| 2026-04-21 12:44 | 53.63295 | 9.99471 | 47 ft | 21 kts | 95° |
| 2026-04-21 12:45 | 53.63274 | 9.99682 | 48 ft | 18 kts | 99° |
| 2026-04-21 12:45 | 53.63325 | 9.99856 | 48 ft | 18 kts | 50° |
| 2026-04-21 12:45 | 53.63405 | 10.00015 | 48 ft | 18 kts | 48° |
| 2026-04-21 12:45 | 53.63416 | 10.00154 | 47 ft | 7 kts | 141° |
| 2026-04-21 12:46 | 53.63376 | 10.00198 | 48 ft | 6 kts | 168° |
| 2026-04-21 12:46 | 53.63336 | 10.00197 | 48 ft | 5 kts | 179° |
| 2026-04-21 12:46 | 53.63310 | 10.00202 | 48 ft | 0 kts | 175° |
| 2026-04-21 12:47 | 53.63287 | 10.00217 | 47 ft | 6 kts | 145° |
| 2026-04-21 12:47 | 53.63290 | 10.00303 | 48 ft | 9 kts | 87° |
| 2026-04-21 12:47 | 53.63292 | 10.00355 | 48 ft | 0 kts | 86° |
| 2026-04-21 12:48 | 53.63292 | 10.00361 | 48 ft | 0 kts | 87° |